Time;durP1;ratioP1;P1;durP2;ratioP2;P2;SDS_P1;SDS_P2;PMS_P1;PMS_P2;Temp;Humidity;BMP_temperature;BMP_pressure;BME280_temperature;BME280_humidity;BME280_pressure;Samples;Min_cycle;Max_cycle;Signal;HPM_P1;HPM_P2
2022/03/16 00:00:27;;;;;;;28.15;17.63;;;6.60;99.90;;;;;;5070305;28;20045;-80
2022/03/16 00:02:52;;;;;;;45.72;19.30;;;6.40;99.90;;;;;;5070262;28;20040;-80
2022/03/16 00:05:18;;;;;;;63.42;16.48;;;6.30;99.90;;;;;;5070127;28;20109;-81
2022/03/16 00:07:44;;;;;;;161.90;20.02;;;6.30;99.90;;;;;;5070584;28;20047;-81
2022/03/16 00:10:10;;;;;;;80.57;14.85;;;6.10;99.90;;;;;;5070042;28;20493;-80
2022/03/16 00:12:37;;;;;;;88.68;15.75;;;6.00;99.90;;;;;;5069825;28;20055;-80
2022/03/16 00:15:03;;;;;;;19.77;11.30;;;5.90;99.90;;;;;;5070091;28;20039;-81
2022/03/16 00:17:29;;;;;;;18.42;12.73;;;5.80;99.90;;;;;;5070227;28;20044;-81
2022/03/16 00:19:54;;;;;;;20.10;13.75;;;5.70;99.90;;;;;;5053561;28;20041;-81
2022/03/16 00:22:20;;;;;;;28.35;18.45;;;5.70;99.90;;;;;;5069776;28;20040;-81
2022/03/16 00:24:45;;;;;;;26.00;17.70;;;5.70;99.90;;;;;;5069872;28;20036;-80
2022/03/16 00:27:11;;;;;;;23.35;17.52;;;5.80;99.90;;;;;;5069781;28;20080;-81
2022/03/16 00:29:37;;;;;;;22.35;15.25;;;5.80;99.90;;;;;;5070129;28;20083;-81
2022/03/16 00:32:03;;;;;;;19.80;14.07;;;5.80;99.90;;;;;;5069477;28;20033;-81
2022/03/16 00:34:29;;;;;;;18.92;13.27;;;5.80;99.90;;;;;;5069880;28;20040;-81
2022/03/16 00:36:55;;;;;;;21.30;16.50;;;5.80;99.90;;;;;;5070272;28;20041;-81
2022/03/16 00:39:21;;;;;;;23.30;15.98;;;5.80;99.90;;;;;;5069497;28;20540;-81
2022/03/16 00:41:46;;;;;;;25.88;17.23;;;5.90;99.90;;;;;;5052689;28;20036;-81
2022/03/16 00:44:12;;;;;;;27.38;18.80;;;5.90;99.90;;;;;;5070062;28;20102;-81
2022/03/16 00:46:38;;;;;;;30.67;20.98;;;5.90;99.90;;;;;;5069530;28;20053;-81
2022/03/16 00:49:04;;;;;;;29.98;20.08;;;5.90;99.90;;;;;;5069797;28;20044;-81
2022/03/16 00:51:29;;;;;;;30.45;21.50;;;6.00;99.90;;;;;;5069408;28;20751;-81
2022/03/16 00:53:55;;;;;;;36.70;22.98;;;6.00;99.90;;;;;;5068519;28;20044;-81
2022/03/16 00:56:21;;;;;;;33.65;22.83;;;6.00;99.90;;;;;;5071054;28;20032;-81
2022/03/16 00:58:47;;;;;;;34.35;22.45;;;6.00;99.90;;;;;;5069441;28;20036;-81
2022/03/16 01:01:12;;;;;;;35.97;23.63;;;6.10;99.90;;;;;;5069381;28;20037;-81
2022/03/16 01:03:40;;;;;;;33.20;22.63;;;6.10;99.90;;;;;;5053035;28;20421;-81
2022/03/16 01:06:12;;;;;;;32.15;21.17;;;6.10;99.90;;;;;;5071365;28;20076;-81
2022/03/16 01:08:38;;;;;;;33.43;20.87;;;6.10;99.90;;;;;;5055924;28;20041;-81
2022/03/16 01:11:04;;;;;;;33.83;18.83;;;6.10;99.90;;;;;;5072493;28;20048;-81
2022/03/16 01:13:29;;;;;;;119.13;20.38;;;6.10;99.90;;;;;;5056655;28;20708;-81
2022/03/16 01:15:55;;;;;;;41.78;17.23;;;5.90;99.90;;;;;;5073451;28;20449;-81
2022/03/16 01:18:21;;;;;;;22.40;15.68;;;5.80;99.90;;;;;;5073335;28;20429;-80
2022/03/16 01:20:46;;;;;;;19.77;14.68;;;5.70;99.90;;;;;;5056105;28;20559;-81
2022/03/16 01:23:12;;;;;;;21.83;14.55;;;5.70;99.90;;;;;;5073176;28;20043;-81
2022/03/16 01:25:37;;;;;;;17.65;11.68;;;5.70;99.90;;;;;;5073063;28;20538;-81
2022/03/16 01:28:03;;;;;;;17.55;13.35;;;5.60;99.90;;;;;;5072977;28;20036;-81
2022/03/16 01:30:28;;;;;;;17.85;12.95;;;5.60;99.90;;;;;;5073074;28;20036;-81
2022/03/16 01:32:54;;;;;;;18.70;12.48;;;5.60;99.90;;;;;;5072984;28;20471;-81
2022/03/16 01:35:20;;;;;;;16.88;12.15;;;5.60;99.90;;;;;;5073207;28;20497;-81
2022/03/16 01:37:45;;;;;;;16.88;11.60;;;5.60;99.90;;;;;;5073318;28;20036;-81
2022/03/16 01:40:11;;;;;;;107.97;15.90;;;5.60;99.90;;;;;;5072729;28;20044;-81
2022/03/16 01:42:37;;;;;;;84.38;17.10;;;5.50;99.90;;;;;;5072747;28;20547;-81
2022/03/16 01:45:03;;;;;;;25.63;17.25;;;5.30;99.90;;;;;;5072869;28;20036;-81
2022/03/16 01:47:32;;;;;;;26.48;16.95;;;5.30;99.90;;;;;;5072046;28;20650;-80
2022/03/16 01:49:57;;;;;;;25.60;15.10;;;5.20;99.90;;;;;;5072029;28;20509;-81
2022/03/16 01:52:25;;;;;;;51.38;19.30;;;5.20;99.90;;;;;;5068936;28;20048;-81
2022/03/16 01:54:51;;;;;;;27.45;17.30;;;5.30;99.90;;;;;;5070944;28;20070;-80
2022/03/16 01:57:17;;;;;;;38.03;15.52;;;5.20;99.90;;;;;;5072753;28;20037;-81
2022/03/16 01:59:43;;;;;;;27.95;15.68;;;5.20;99.90;;;;;;5073647;28;20090;-80
2022/03/16 02:02:10;;;;;;;26.85;15.85;;;5.10;99.90;;;;;;5072448;28;20387;-80
2022/03/16 02:04:36;;;;;;;24.65;15.43;;;5.10;99.90;;;;;;5072814;28;20124;-80
2022/03/16 02:07:03;;;;;;;23.13;14.38;;;5.00;99.90;;;;;;5071851;28;20128;-81
2022/03/16 02:09:29;;;;;;;19.67;12.82;;;5.00;99.90;;;;;;5055098;28;20413;-81
2022/03/16 02:11:54;;;;;;;24.95;16.40;;;4.90;99.90;;;;;;5071459;28;20543;-81
2022/03/16 02:14:20;;;;;;;17.70;12.13;;;4.90;99.90;;;;;;5071917;28;20040;-81
2022/03/16 02:16:47;;;;;;;20.23;13.45;;;5.00;99.90;;;;;;5071341;28;20494;-81
2022/03/16 02:19:12;;;;;;;23.42;15.35;;;4.90;99.90;;;;;;5071059;28;20040;-81
2022/03/16 02:21:40;;;;;;;21.27;14.82;;;4.90;99.90;;;;;;5071121;28;20093;-81
2022/03/16 02:24:06;;;;;;;20.83;14.48;;;4.90;99.90;;;;;;5071993;28;20041;-81
2022/03/16 02:26:32;;;;;;;21.25;10.55;;;4.90;99.90;;;;;;5072125;28;20043;-81
2022/03/16 02:28:58;;;;;;;19.08;12.52;;;4.80;99.90;;;;;;5072283;28;20037;-81
2022/03/16 02:31:24;;;;;;;21.30;13.88;;;4.80;99.90;;;;;;5071435;28;20048;-81
2022/03/16 02:33:50;;;;;;;23.30;15.43;;;4.80;99.90;;;;;;5071970;28;20052;-81
2022/03/16 02:36:16;;;;;;;21.33;14.18;;;4.80;99.90;;;;;;5072349;28;20430;-81
2022/03/16 02:38:42;;;;;;;20.63;14.05;;;4.70;99.90;;;;;;5071921;28;20510;-81
2022/03/16 02:41:07;;;;;;;17.33;11.82;;;4.60;99.90;;;;;;5055140;28;20086;-81
2022/03/16 02:43:33;;;;;;;19.92;12.80;;;4.50;99.90;;;;;;5071865;28;20043;-81
2022/03/16 02:45:59;;;;;;;43.03;13.70;;;4.50;99.90;;;;;;5071855;28;20123;-81
2022/03/16 02:48:24;;;;;;;18.25;12.27;;;4.40;99.90;;;;;;5054891;28;20468;-81
2022/03/16 02:50:50;;;;;;;16.50;10.57;;;4.30;99.90;;;;;;5054892;28;20046;-81
2022/03/16 02:53:16;;;;;;;16.52;10.75;;;4.20;99.90;;;;;;5054889;28;20083;-81
2022/03/16 02:55:44;;;;;;;18.48;12.20;;;4.10;99.90;;;;;;5070743;28;20186;-81
2022/03/16 02:58:10;;;;;;;15.55;11.18;;;4.10;99.90;;;;;;5055176;28;20547;-81
2022/03/16 03:00:35;;;;;;;16.50;10.93;;;4.00;99.90;;;;;;5070933;28;20041;-81
2022/03/16 03:03:01;;;;;;;16.85;11.65;;;3.90;99.90;;;;;;5071428;28;20134;-81
2022/03/16 03:05:27;;;;;;;20.00;13.38;;;3.90;99.90;;;;;;5070722;28;20127;-81
2022/03/16 03:07:52;;;;;;;21.17;13.30;;;3.90;99.90;;;;;;5071308;28;20647;-81
2022/03/16 03:10:18;;;;;;;16.60;11.65;;;3.90;99.90;;;;;;5071374;28;20555;-81
2022/03/16 03:12:43;;;;;;;33.55;13.13;;;3.90;99.90;;;;;;5070846;28;20559;-81
2022/03/16 03:15:13;;;;;;;20.98;13.93;;;4.00;99.90;;;;;;5071272;28;20095;-81
2022/03/16 03:17:40;;;;;;;22.55;14.02;;;4.00;99.90;;;;;;5071383;28;20048;-81
2022/03/16 03:20:06;;;;;;;21.98;12.85;;;4.00;99.90;;;;;;5071172;28;20082;-81
2022/03/16 03:22:32;;;;;;;36.38;13.10;;;4.00;99.90;;;;;;5071023;28;20401;-81
2022/03/16 03:24:57;;;;;;;20.60;11.98;;;3.90;99.90;;;;;;5070997;28;20054;-81
2022/03/16 03:27:24;;;;;;;13.48;9.88;;;3.90;99.90;;;;;;5070293;28;20037;-81
2022/03/16 03:29:49;;;;;;;12.32;8.73;;;3.90;99.90;;;;;;5071322;28;20675;-81
2022/03/16 03:32:15;;;;;;;13.20;9.13;;;3.90;99.90;;;;;;5070474;28;20039;-81
2022/03/16 03:34:45;;;;;;;15.32;9.82;;;3.90;99.90;;;;;;5070424;28;20045;-81
2022/03/16 03:37:12;;;;;;;14.95;10.25;;;3.90;99.90;;;;;;5054564;28;20032;-81
2022/03/16 03:39:38;;;;;;;17.15;11.43;;;3.90;99.90;;;;;;5070458;28;20072;-81
2022/03/16 03:42:04;;;;;;;17.25;11.18;;;3.90;99.90;;;;;;5070434;28;20072;-81
2022/03/16 03:44:30;;;;;;;18.85;11.82;;;3.90;99.90;;;;;;5070688;28;20078;-81
2022/03/16 03:46:55;;;;;;;19.15;12.48;;;3.90;99.90;;;;;;5053949;28;20054;-81
2022/03/16 03:49:21;;;;;;;22.25;14.45;;;4.00;99.90;;;;;;5053964;28;20063;-81
2022/03/16 03:51:46;;;;;;;23.25;14.77;;;4.00;99.90;;;;;;5069891;28;20040;-81
2022/03/16 03:54:12;;;;;;;24.52;16.98;;;4.00;99.90;;;;;;5052551;28;20068;-81
2022/03/16 03:56:37;;;;;;;27.75;17.38;;;4.10;99.90;;;;;;5070363;28;20131;-81
2022/03/16 03:59:03;;;;;;;26.42;17.83;;;4.20;99.90;;;;;;5070765;28;20043;-81
2022/03/16 04:01:29;;;;;;;24.42;16.25;;;4.20;99.90;;;;;;5070065;28;20032;-81
2022/03/16 04:03:54;;;;;;;25.73;14.85;;;4.10;99.90;;;;;;5069962;28;20578;-81
2022/03/16 04:06:20;;;;;;;50.20;16.35;;;4.10;99.90;;;;;;5070179;28;20079;-81
2022/03/16 04:08:45;;;;;;;22.33;15.23;;;4.00;99.90;;;;;;5070162;28;20041;-81
2022/03/16 04:11:12;;;;;;;25.63;14.98;;;3.90;99.90;;;;;;5053646;28;20043;-81
2022/03/16 04:13:37;;;;;;;29.95;13.98;;;3.90;99.90;;;;;;5053561;28;20524;-81
2022/03/16 04:16:03;;;;;;;31.58;14.55;;;3.90;99.90;;;;;;5053680;28;20029;-81
2022/03/16 04:18:29;;;;;;;20.75;13.57;;;3.90;99.90;;;;;;5069774;28;20044;-81
2022/03/16 04:20:55;;;;;;;20.67;14.57;;;3.80;99.90;;;;;;5069882;28;20036;-81
2022/03/16 04:23:21;;;;;;;24.67;16.48;;;3.80;99.90;;;;;;5070022;28;20127;-81
2022/03/16 04:25:47;;;;;;;24.45;15.55;;;3.80;99.90;;;;;;5070397;28;20074;-81
2022/03/16 04:28:13;;;;;;;26.27;16.63;;;3.80;99.90;;;;;;5070058;28;20044;-81
2022/03/16 04:30:38;;;;;;;26.27;17.27;;;3.90;99.90;;;;;;5053113;28;20513;-81
2022/03/16 04:33:04;;;;;;;29.60;17.70;;;3.90;99.90;;;;;;5069323;28;20456;-81
2022/03/16 04:35:29;;;;;;;29.55;19.30;;;4.00;99.90;;;;;;5070270;28;20036;-81
2022/03/16 04:37:55;;;;;;;29.08;18.85;;;4.10;99.90;;;;;;5053510;28;20127;-81
2022/03/16 04:40:20;;;;;;;30.42;20.33;;;4.10;99.90;;;;;;5070507;28;20032;-81
2022/03/16 04:42:46;;;;;;;30.77;20.02;;;4.10;99.90;;;;;;5069567;28;20040;-81
2022/03/16 04:45:12;;;;;;;29.60;19.05;;;4.20;99.90;;;;;;5070065;28;20040;-81
2022/03/16 04:47:38;;;;;;;32.83;19.73;;;4.20;99.90;;;;;;5069383;28;20090;-81
2022/03/16 04:50:05;;;;;;;28.45;18.00;;;4.20;99.90;;;;;;5069714;28;20032;-81
2022/03/16 04:52:31;;;;;;;29.25;18.23;;;4.20;99.90;;;;;;5052635;28;20029;-81
2022/03/16 04:54:56;;;;;;;27.15;17.92;;;4.10;99.90;;;;;;5068561;28;20070;-81
2022/03/16 04:57:22;;;;;;;29.77;20.20;;;4.00;99.90;;;;;;5069887;28;20131;-81
2022/03/16 04:59:48;;;;;;;30.10;18.15;;;4.10;99.90;;;;;;5069737;28;20032;-81
2022/03/16 05:02:13;;;;;;;29.58;19.45;;;4.10;99.90;;;;;;5052510;28;20037;-81
2022/03/16 05:04:39;;;;;;;30.17;17.02;;;4.10;99.90;;;;;;5069541;28;20127;-81
2022/03/16 05:07:04;;;;;;;26.15;17.48;;;4.10;99.90;;;;;;5069660;28;20099;-81
2022/03/16 05:09:30;;;;;;;26.08;16.42;;;4.10;99.90;;;;;;5069573;28;20470;-81
2022/03/16 05:11:55;;;;;;;51.30;19.52;;;4.00;99.90;;;;;;5069143;28;20048;-80
2022/03/16 05:14:21;;;;;;;80.85;16.58;;;3.90;99.90;;;;;;5069420;28;20079;-81
2022/03/16 05:16:46;;;;;;;110.82;14.30;;;3.80;99.90;;;;;;5069774;28;20033;-80
2022/03/16 05:19:12;;;;;;;35.78;12.98;;;3.70;99.90;;;;;;5069741;28;20673;-80
2022/03/16 05:21:38;;;;;;;16.38;10.20;;;3.60;99.90;;;;;;5052751;28;20541;-80
2022/03/16 05:24:04;;;;;;;23.95;13.93;;;3.50;99.90;;;;;;5052580;28;20090;-81
2022/03/16 05:26:30;;;;;;;24.05;15.30;;;3.50;99.90;;;;;;5069521;28;20036;-81
2022/03/16 05:28:56;;;;;;;25.90;16.80;;;3.60;99.90;;;;;;5069411;28;20040;-81
2022/03/16 05:31:23;;;;;;;24.40;16.80;;;3.60;99.90;;;;;;5068862;28;20054;-81
2022/03/16 05:33:49;;;;;;;26.20;16.55;;;3.60;99.90;;;;;;5069448;28;20045;-81
2022/03/16 05:36:15;;;;;;;27.17;17.88;;;3.70;99.90;;;;;;5069099;28;20033;-80
2022/03/16 05:38:41;;;;;;;22.15;14.95;;;3.70;99.90;;;;;;5069786;28;20036;-81
2022/03/16 05:41:06;;;;;;;21.98;15.35;;;3.70;99.90;;;;;;5052107;28;20522;-81
2022/03/16 05:43:32;;;;;;;23.00;16.52;;;3.70;99.90;;;;;;5069325;28;20127;-81
2022/03/16 05:45:57;;;;;;;27.75;18.35;;;3.70;99.90;;;;;;5069459;28;20094;-81
2022/03/16 05:48:23;;;;;;;27.35;18.63;;;3.70;99.90;;;;;;5069197;28;20108;-81
2022/03/16 05:50:48;;;;;;;36.55;22.25;;;3.70;99.90;;;;;;5069136;28;20421;-80
2022/03/16 05:53:14;;;;;;;30.10;21.92;;;3.70;99.90;;;;;;5054021;28;20409;-80
2022/03/16 05:55:41;;;;;;;33.38;20.33;;;3.80;99.90;;;;;;5055200;28;20033;-80
2022/03/16 05:58:07;;;;;;;35.58;23.30;;;3.80;99.90;;;;;;5072881;28;20064;-80
2022/03/16 06:00:33;;;;;;;37.20;22.65;;;3.90;99.90;;;;;;5071996;28;20040;-80
2022/03/16 06:02:58;;;;;;;36.08;22.65;;;3.90;99.90;;;;;;5072106;28;20032;-80
2022/03/16 06:05:24;;;;;;;30.33;20.50;;;3.90;99.90;;;;;;5072009;28;20040;-80
2022/03/16 06:07:49;;;;;;;35.45;21.67;;;4.00;99.90;;;;;;5072524;28;20123;-80
2022/03/16 06:10:17;;;;;;;32.47;20.77;;;4.00;99.90;;;;;;5064413;28;20122;-80
2022/03/16 06:12:49;;;;;;;31.60;20.25;;;4.00;99.90;;;;;;5065492;28;20036;-80
2022/03/16 06:15:15;;;;;;;29.42;19.00;;;4.10;99.90;;;;;;5072407;28;20575;-80
2022/03/16 06:17:40;;;;;;;30.15;19.65;;;4.10;99.90;;;;;;5072568;28;20145;-80
2022/03/16 06:20:06;;;;;;;31.20;19.90;;;4.10;99.90;;;;;;5072245;28;20043;-80
2022/03/16 06:22:31;;;;;;;32.00;20.20;;;4.10;99.90;;;;;;5072031;28;20064;-80
2022/03/16 06:24:57;;;;;;;31.92;21.30;;;4.10;99.90;;;;;;5055480;28;20048;-80
2022/03/16 06:27:22;;;;;;;32.13;21.48;;;4.20;99.90;;;;;;5071913;28;20143;-80
2022/03/16 06:29:48;;;;;;;29.00;19.98;;;4.20;99.90;;;;;;5072169;28;20048;-80
2022/03/16 06:32:13;;;;;;;31.70;21.10;;;4.20;99.90;;;;;;5071370;28;20036;-80
2022/03/16 06:34:39;;;;;;;28.25;19.90;;;4.20;99.90;;;;;;5071739;28;20040;-80
2022/03/16 06:37:05;;;;;;;30.10;19.83;;;4.20;99.90;;;;;;5071624;28;20562;-79
2022/03/16 06:39:30;;;;;;;27.23;17.95;;;4.20;99.90;;;;;;5072394;28;20051;-80
2022/03/16 06:41:56;;;;;;;34.05;19.02;;;4.30;99.90;;;;;;5055170;28;20036;-80
2022/03/16 06:44:21;;;;;;;31.48;20.73;;;4.30;99.90;;;;;;5071439;28;20093;-80
2022/03/16 06:46:48;;;;;;;30.05;20.23;;;4.40;99.90;;;;;;5071648;28;20032;-80
2022/03/16 06:49:14;;;;;;;31.55;20.73;;;4.40;99.90;;;;;;5071615;28;20053;-80
2022/03/16 06:51:39;;;;;;;32.25;21.15;;;4.50;99.90;;;;;;5055059;28;20044;-80
2022/03/16 06:54:05;;;;;;;35.92;22.65;;;4.50;99.90;;;;;;5070019;28;20041;-80
2022/03/16 06:56:31;;;;;;;33.05;22.63;;;4.60;99.90;;;;;;5055259;28;20035;-80
2022/03/16 06:58:56;;;;;;;32.45;22.88;;;4.70;99.90;;;;;;5071882;28;20040;-80
2022/03/16 07:01:22;;;;;;;35.22;22.95;;;4.80;99.90;;;;;;5070951;28;20481;-80
2022/03/16 07:03:47;;;;;;;31.40;21.42;;;4.80;99.90;;;;;;5071291;28;20071;-80
2022/03/16 07:06:13;;;;;;;31.63;22.77;;;4.90;99.90;;;;;;5070444;28;20040;-80
2022/03/16 07:08:39;;;;;;;34.53;22.85;;;4.90;99.90;;;;;;5071237;28;20048;-80
2022/03/16 07:11:07;;;;;;;35.25;24.02;;;5.00;99.90;;;;;;5070485;28;20079;-80
2022/03/16 07:13:33;;;;;;;38.78;25.27;;;5.00;99.90;;;;;;5054054;28;20051;-80
2022/03/16 07:15:58;;;;;;;33.88;23.48;;;5.10;99.90;;;;;;5067375;28;20119;-80
2022/03/16 07:18:24;;;;;;;31.05;22.35;;;5.20;99.90;;;;;;5070801;28;20497;-80
2022/03/16 07:20:50;;;;;;;31.95;23.00;;;5.20;99.90;;;;;;5070937;28;20029;-80
2022/03/16 07:23:17;;;;;;;32.45;23.38;;;5.30;99.90;;;;;;5070962;28;20040;-80
2022/03/16 07:25:48;;;;;;;32.95;22.73;;;5.30;99.90;;;;;;5065514;28;20445;-80
2022/03/16 07:28:16;;;;;;;30.58;22.15;;;5.40;99.90;;;;;;5066388;28;20048;-80
2022/03/16 07:30:42;;;;;;;27.27;20.83;;;5.40;99.90;;;;;;5070956;28;20040;-79
2022/03/16 07:33:08;;;;;;;29.88;22.02;;;5.50;99.90;;;;;;5053887;28;20089;-81
2022/03/16 07:35:35;;;;;;;32.97;22.83;;;5.60;99.90;;;;;;5071235;28;20048;-81
2022/03/16 07:38:02;;;;;;;29.30;21.73;;;5.60;99.90;;;;;;5070274;28;20043;-81
2022/03/16 07:40:30;;;;;;;33.47;23.80;;;5.70;99.90;;;;;;5069985;28;20085;-81
2022/03/16 07:42:56;;;;;;;30.73;23.38;;;5.80;99.90;;;;;;5070429;28;20040;-80
2022/03/16 07:45:21;;;;;;;33.10;23.33;;;5.90;99.90;;;;;;5070904;28;20134;-80
2022/03/16 07:47:49;;;;;;;29.75;21.67;;;6.00;99.90;;;;;;5070533;28;20406;-81
2022/03/16 07:50:15;;;;;;;33.42;24.75;;;6.10;99.90;;;;;;5054149;28;20044;-81
2022/03/16 07:52:41;;;;;;;28.80;22.17;;;6.30;99.90;;;;;;5069765;28;20048;-80
2022/03/16 07:55:08;;;;;;;31.38;22.10;;;6.30;99.90;;;;;;5069409;28;20066;-80
2022/03/16 07:57:37;;;;;;;33.67;25.08;;;6.50;99.90;;;;;;5070010;28;20043;-81
2022/03/16 08:00:05;;;;;;;32.90;22.77;;;6.50;99.90;;;;;;5070677;28;20032;-80
2022/03/16 08:02:31;;;;;;;30.67;21.92;;;6.60;99.90;;;;;;5069754;28;20040;-80
2022/03/16 08:04:58;;;;;;;30.25;22.70;;;6.70;99.90;;;;;;5070211;28;20102;-81
2022/03/16 08:07:28;;;;;;;27.60;22.08;;;6.80;99.90;;;;;;5070112;28;20037;-81
2022/03/16 08:09:54;;;;;;;31.55;22.55;;;6.80;99.90;;;;;;5053582;28;20171;-80
2022/03/16 08:12:19;;;;;;;27.63;20.65;;;6.90;99.90;;;;;;5051926;28;20066;-80
2022/03/16 08:14:45;;;;;;;32.33;23.27;;;7.00;99.90;;;;;;5069385;28;20041;-81
2022/03/16 08:17:11;;;;;;;30.17;21.95;;;7.00;99.90;;;;;;5053558;28;20074;-81
2022/03/16 08:19:36;;;;;;;29.50;23.17;;;7.20;99.90;;;;;;5070486;28;20045;-81
2022/03/16 08:22:02;;;;;;;31.90;21.83;;;7.30;99.90;;;;;;5053068;28;20128;-81
2022/03/16 08:24:28;;;;;;;32.78;23.75;;;7.50;99.90;;;;;;5069539;28;20071;-81
2022/03/16 08:26:53;;;;;;;30.85;23.33;;;7.60;99.90;;;;;;5053141;28;20045;-81
2022/03/16 08:29:19;;;;;;;35.22;23.92;;;7.80;99.90;;;;;;5070350;28;20044;-81
2022/03/16 08:31:44;;;;;;;33.85;24.65;;;7.90;99.90;;;;;;5069455;28;20505;-81
2022/03/16 08:34:11;;;;;;;30.75;24.23;;;8.00;99.90;;;;;;5069966;28;20425;-81
2022/03/16 08:36:38;;;;;;;34.35;22.67;;;8.10;99.90;;;;;;5069649;28;20044;-81
2022/03/16 08:39:05;;;;;;;32.72;24.27;;;8.30;99.90;;;;;;5053679;28;20135;-81
2022/03/16 08:41:32;;;;;;;30.08;23.40;;;8.40;99.90;;;;;;5069465;28;20040;-81
2022/03/16 08:43:58;;;;;;;31.08;24.92;;;8.60;99.90;;;;;;5069715;28;20567;-81
2022/03/16 08:46:24;;;;;;;33.25;25.08;;;8.70;99.90;;;;;;5052918;28;20051;-81
2022/03/16 08:48:50;;;;;;;30.27;23.80;;;8.90;99.90;;;;;;5069109;28;20591;-81
2022/03/16 08:51:15;;;;;;;34.13;23.95;;;9.00;99.90;;;;;;5068923;28;20545;-81
2022/03/16 08:53:41;;;;;;;31.95;24.15;;;9.20;99.90;;;;;;5051815;28;20807;-80
2022/03/16 08:56:06;;;;;;;27.85;22.38;;;9.30;99.90;;;;;;5069749;28;20040;-80
2022/03/16 08:58:33;;;;;;;29.88;21.85;;;9.40;99.90;;;;;;5069598;28;20044;-80
2022/03/16 09:00:58;;;;;;;29.55;22.42;;;9.50;99.90;;;;;;5069297;28;20033;-81
2022/03/16 09:03:24;;;;;;;30.90;21.83;;;9.60;99.90;;;;;;5053022;28;20047;-80
2022/03/16 09:05:50;;;;;;;24.42;19.17;;;9.70;99.90;;;;;;5069671;28;20044;-81
2022/03/16 09:08:18;;;;;;;27.25;19.88;;;9.80;99.90;;;;;;5070014;28;20040;-81
2022/03/16 09:10:43;;;;;;;27.25;19.45;;;9.80;99.90;;;;;;5053167;28;20059;-81
2022/03/16 09:13:09;;;;;;;28.38;20.77;;;9.90;99.90;;;;;;5069166;28;20048;-81
2022/03/16 09:15:34;;;;;;;30.00;18.85;;;10.00;99.90;;;;;;5069709;28;20134;-81
2022/03/16 09:18:00;;;;;;;28.00;19.73;;;10.00;99.90;;;;;;5069475;28;20040;-81
2022/03/16 09:20:26;;;;;;;26.65;19.10;;;10.10;99.90;;;;;;5068793;28;20409;-81
2022/03/16 09:22:51;;;;;;;26.52;19.20;;;10.20;99.90;;;;;;5067199;28;20036;-81
2022/03/16 09:25:17;;;;;;;23.42;17.90;;;10.30;99.90;;;;;;5052618;28;20044;-82
2022/03/16 09:27:43;;;;;;;26.38;18.83;;;10.50;99.90;;;;;;5055676;28;20132;-82
2022/03/16 09:30:09;;;;;;;25.73;18.42;;;10.60;99.90;;;;;;5071343;28;20112;-81
2022/03/16 09:32:34;;;;;;;22.38;16.50;;;10.80;99.90;;;;;;5072771;28;20052;-81
2022/03/16 09:35:00;;;;;;;22.77;16.92;;;10.90;99.90;;;;;;5072834;28;20132;-81
2022/03/16 09:37:26;;;;;;;23.90;17.83;;;11.00;99.90;;;;;;5072369;28;20394;-82
2022/03/16 09:39:52;;;;;;;23.35;18.15;;;11.10;99.90;;;;;;5073029;28;20037;-82
2022/03/16 09:42:19;;;;;;;21.67;16.70;;;11.30;99.90;;;;;;5055650;28;20076;-81
2022/03/16 09:44:46;;;;;;;23.05;17.00;;;11.40;99.90;;;;;;5056329;28;20044;-82
2022/03/16 09:47:12;;;;;;;22.80;16.25;;;11.50;99.90;;;;;;5055888;28;20040;-81
2022/03/16 09:49:38;;;;;;;21.45;16.08;;;11.70;99.90;;;;;;5073065;28;20084;-81
2022/03/16 09:52:07;;;;;;;20.55;16.45;;;11.80;99.90;;;;;;5073035;28;20447;-82
2022/03/16 09:54:33;;;;;;;21.60;17.60;;;11.90;99.90;;;;;;5071034;28;20433;-81
2022/03/16 09:56:59;;;;;;;22.15;16.80;;;12.10;99.90;;;;;;5072243;28;20040;-82
2022/03/16 09:59:25;;;;;;;22.10;16.23;;;12.20;99.90;;;;;;5072597;28;20043;-82
2022/03/16 10:02:09;;;;;;;21.38;16.95;;;12.40;99.90;;;;;;5072820;28;20409;-82
2022/03/16 10:04:36;;;;;;;22.35;16.50;;;12.60;99.90;;;;;;5072729;28;20033;-82
2022/03/16 10:07:05;;;;;;;22.05;16.20;;;12.70;99.90;;;;;;5072557;28;20043;-81
2022/03/16 10:15:06;;;;;;;21.48;16.30;;;13.20;98.80;;;;;;5072599;28;20052;-82
2022/03/16 10:17:44;;;;;;;19.63;16.10;;;13.30;98.50;;;;;;5072020;28;20048;-82
2022/03/16 10:20:30;;;;;;;22.48;16.42;;;13.50;98.20;;;;;;5072576;28;20083;-81
2022/03/16 10:23:17;;;;;;;22.33;16.52;;;13.60;96.80;;;;;;5071979;28;20548;-82
2022/03/16 10:25:45;;;;;;;19.77;15.48;;;13.60;95.30;;;;;;5072448;28;20036;-82
2022/03/16 10:28:13;;;;;;;20.92;15.50;;;13.70;96.00;;;;;;5072089;28;20040;-81
2022/03/16 10:31:03;;;;;;;19.52;15.55;;;13.80;95.30;;;;;;5053614;28;20045;-80
2022/03/16 10:33:32;;;;;;;20.50;14.88;;;13.90;94.40;;;;;;5071261;28;20116;-81
2022/03/16 10:36:13;;;;;;;18.27;13.75;;;14.00;95.10;;;;;;5072273;28;20048;-81
2022/03/16 10:38:46;;;;;;;17.98;14.13;;;14.20;92.40;;;;;;5054414;28;20040;-80
2022/03/16 10:47:30;;;;;;;17.83;12.88;;;14.10;91.10;;;;;;5071194;28;20076;-81
2022/03/16 10:50:07;;;;;;;18.48;12.95;;;14.20;89.30;;;;;;5070636;28;20048;-81
2022/03/16 10:52:34;;;;;;;20.05;13.13;;;14.30;89.70;;;;;;5054927;28;20036;-81
2022/03/16 10:55:02;;;;;;;17.50;13.20;;;14.40;88.90;;;;;;5053693;28;20082;-82
2022/03/16 10:57:29;;;;;;;18.15;13.07;;;14.40;87.40;;;;;;5054580;28;20489;-82
2022/03/16 10:59:55;;;;;;;16.80;13.15;;;14.50;88.50;;;;;;5064368;28;20107;-81
2022/03/16 11:02:27;;;;;;;17.65;13.65;;;14.70;86.90;;;;;;5061984;28;20064;-81
2022/03/16 11:04:53;;;;;;;18.98;12.80;;;14.80;83.50;;;;;;5048791;28;20040;-82
2022/03/16 11:07:20;;;;;;;18.50;13.75;;;14.80;82.90;;;;;;5070615;28;20040;-81
2022/03/16 11:09:47;;;;;;;17.50;12.60;;;14.90;83.70;;;;;;5071496;28;20045;-81
2022/03/16 11:15:01;;;;;;;19.52;13.88;;;15.10;84.10;;;;;;5071170;28;20426;-82
2022/03/16 11:17:28;;;;;;;18.30;13.93;;;15.20;82.20;;;;;;5054648;28;20387;-82
2022/03/16 11:19:55;;;;;;;18.73;14.77;;;15.30;80.00;;;;;;5055079;28;20064;-81
2022/03/16 11:22:33;;;;;;;19.38;13.85;;;15.40;78.40;;;;;;5054534;28;20040;-81
2022/03/16 11:25:09;;;;;;;18.85;13.70;;;15.50;78.00;;;;;;5070448;28;20494;-81
2022/03/16 11:27:49;;;;;;;17.70;13.80;;;15.50;77.60;;;;;;5071215;28;20036;-82
2022/03/16 11:30:26;;;;;;;17.98;14.30;;;15.70;77.50;;;;;;5054396;28;20406;-82
2022/03/16 11:32:57;;;;;;;19.83;14.15;;;15.80;77.10;;;;;;5053782;28;20040;-81
2022/03/16 11:35:35;;;;;;;17.15;13.80;;;16.00;76.30;;;;;;5072431;28;20143;-82
2022/03/16 11:38:11;;;;;;;18.13;15.18;;;16.10;76.60;;;;;;5071317;28;20081;-81
2022/03/16 11:40:39;;;;;;;19.77;15.15;;;16.30;75.90;;;;;;5070429;28;20036;-82
2022/03/16 11:43:05;;;;;;;56.60;17.23;;;16.50;74.00;;;;;;5053560;28;20082;-82
2022/03/16 11:45:33;;;;;;;18.67;14.30;;;16.60;74.60;;;;;;5070929;28;20044;-82
2022/03/16 11:47:59;;;;;;;19.05;15.00;;;16.70;72.90;;;;;;5070573;28;20051;-82
2022/03/16 11:50:24;;;;;;;17.67;13.88;;;16.90;72.70;;;;;;5070040;28;20115;-82
2022/03/16 11:53:04;;;;;;;19.30;13.98;;;17.00;70.70;;;;;;5070308;28;20490;-81
2022/03/16 11:55:40;;;;;;;18.50;14.20;;;17.20;68.80;;;;;;5069438;28;20044;-82
2022/03/16 11:58:28;;;;;;;18.77;14.70;;;17.30;68.90;;;;;;5070552;28;20090;-82
2022/03/16 12:01:29;;;;;;;43.80;16.58;;;17.40;67.30;;;;;;5068060;28;20411;-82
2022/03/16 12:04:12;;;;;;;99.90;21.17;;;17.60;67.50;;;;;;5070410;28;20498;-82
2022/03/16 12:07:05;;;;;;;19.25;15.00;;;17.70;67.30;;;;;;5068637;28;20041;-82
2022/03/16 12:09:51;;;;;;;19.67;14.30;;;17.90;66.50;;;;;;5070529;28;20127;-82
2022/03/16 12:15:22;;;;;;;18.95;14.38;;;18.20;64.90;;;;;;5070308;28;20052;-81
2022/03/16 12:17:50;;;;;;;17.10;13.80;;;18.30;64.90;;;;;;5070096;28;20036;-81
2022/03/16 12:20:25;;;;;;;17.17;13.80;;;18.40;62.30;;;;;;5070082;28;20032;-81
2022/03/16 12:22:53;;;;;;;15.38;12.55;;;18.60;60.80;;;;;;5069794;28;20033;-82
2022/03/16 12:25:27;;;;;;;15.50;12.45;;;18.60;59.70;;;;;;5053524;28;20037;-81
2022/03/16 12:31:07;;;;;;;16.73;12.55;;;18.80;58.90;;;;;;5068595;28;20048;-82
2022/03/16 12:33:52;;;;;;;59.13;15.70;;;19.10;59.40;;;;;;5052524;28;20045;-81
2022/03/16 12:36:21;;;;;;;18.00;13.50;;;19.40;57.60;;;;;;5050353;28;20051;-77
2022/03/16 12:39:13;;;;;;;16.33;12.63;;;19.40;57.00;;;;;;5072043;28;20024;-80
2022/03/16 12:44:23;;;;;;;16.77;12.85;;;19.60;55.20;;;;;;5053966;28;20412;-81
2022/03/16 12:47:11;;;;;;;17.58;13.88;;;19.70;55.30;;;;;;5070275;28;20604;-80
2022/03/16 12:49:43;;;;;;;22.40;14.05;;;19.90;52.60;;;;;;5070412;28;20044;-80
2022/03/16 12:52:09;;;;;;;16.45;13.77;;;20.00;53.50;;;;;;5069934;28;20413;-81
2022/03/16 12:54:36;;;;;;;17.50;14.15;;;20.30;53.60;;;;;;5068936;28;20037;-81
2022/03/16 12:57:08;;;;;;;17.17;13.63;;;20.40;52.90;;;;;;5069878;28;20032;-81